Bylas, Arizona
Current Conditions -  °F | °C
As of 4:51 AM on Sunday 25 Jan 2015 (Local Time) from KSAD Reporting Station
Clear Clear  
Wind Chill: 33°   Ceiling: Unl
Heat Index: 40°   Visibility: 10mi
Dew Point: 18°   Wind: 10mph
Humidity: 41%   Direction: 130°SE
Pressure: 30.18"   Gusts: NA
Location:  33.14°N, 110.13°W
Report Text: KSAD 251151Z AUTO 13009KT 10SM CLR 04/M08 A3018 RMK AO2 SLP205 T00441078 10067 20028 55006
Loading
Personal Weather Stations






























Interactive Weather Map New forecast layout! Learn more

10-Day Weather Forecast

Advertisements
Track Severe Weather on mobile